sensor_id;sensor_type;location;lat;lon;timestamp;pressure;altitude;pressure_sealevel;temperature;humidity
63916;BME280;50094;51.356;-0.196;2022-09-09T00:00:49;99479.94;;;27.34;38.59
63916;BME280;50094;51.356;-0.196;2022-09-09T00:03:24;99480.71;;;27.61;38.64
63916;BME280;50094;51.356;-0.196;2022-09-09T00:05:58;99480.45;;;27.38;38.59
63916;BME280;50094;51.356;-0.196;2022-09-09T00:08:36;99479.53;;;27.62;38.61
63916;BME280;50094;51.356;-0.196;2022-09-09T00:11:09;99478.60;;;27.31;38.71
63916;BME280;50094;51.356;-0.196;2022-09-09T00:13:43;99478.60;;;27.56;38.74
63916;BME280;50094;51.356;-0.196;2022-09-09T00:16:17;99476.39;;;27.56;38.70
63916;BME280;50094;51.356;-0.196;2022-09-09T00:18:52;99473.49;;;27.54;38.72
63916;BME280;50094;51.356;-0.196;2022-09-09T00:21:24;99475.29;;;27.22;38.81
63916;BME280;50094;51.356;-0.196;2022-09-09T00:23:54;99476.74;;;27.36;39.00
63916;BME280;50094;51.356;-0.196;2022-09-09T00:26:31;99474.28;;;27.50;38.84
63916;BME280;50094;51.356;-0.196;2022-09-09T00:29:05;99473.92;;;27.46;38.90
63916;BME280;50094;51.356;-0.196;2022-09-09T00:31:36;99472.78;;;27.62;38.99
63916;BME280;50094;51.356;-0.196;2022-09-09T00:34:11;99472.49;;;27.04;39.08
63916;BME280;50094;51.356;-0.196;2022-09-09T00:36:39;99472.25;;;27.62;39.00
63916;BME280;50094;51.356;-0.196;2022-09-09T00:39:12;99468.46;;;27.43;38.96
63916;BME280;50094;51.356;-0.196;2022-09-09T00:41:50;99463.12;;;27.24;38.88
63916;BME280;50094;51.356;-0.196;2022-09-09T00:44:31;99464.50;;;27.45;38.97
63916;BME280;50094;51.356;-0.196;2022-09-09T00:47:12;99463.03;;;27.50;38.94
63916;BME280;50094;51.356;-0.196;2022-09-09T00:49:54;99461.11;;;27.64;38.82
63916;BME280;50094;51.356;-0.196;2022-09-09T00:52:32;99463.22;;;27.38;38.87
63916;BME280;50094;51.356;-0.196;2022-09-09T00:55:08;99461.32;;;27.67;38.79
63916;BME280;50094;51.356;-0.196;2022-09-09T00:57:40;99460.57;;;27.38;38.78
63916;BME280;50094;51.356;-0.196;2022-09-09T01:00:25;99460.98;;;27.51;38.85
63916;BME280;50094;51.356;-0.196;2022-09-09T01:03:07;99459.06;;;27.62;38.75
63916;BME280;50094;51.356;-0.196;2022-09-09T01:05:44;99456.68;;;27.80;38.80
63916;BME280;50094;51.356;-0.196;2022-09-09T01:08:38;99453.75;;;27.48;38.88
63916;BME280;50094;51.356;-0.196;2022-09-09T01:11:12;99450.20;;;27.32;39.02
63916;BME280;50094;51.356;-0.196;2022-09-09T01:13:42;99447.40;;;27.41;38.96
63916;BME280;50094;51.356;-0.196;2022-09-09T01:16:12;99446.26;;;26.96;39.13
63916;BME280;50094;51.356;-0.196;2022-09-09T01:18:44;99449.03;;;27.42;38.99
63916;BME280;50094;51.356;-0.196;2022-09-09T01:21:19;99447.10;;;27.13;39.00
63916;BME280;50094;51.356;-0.196;2022-09-09T01:24:19;99447.73;;;27.23;38.91
63916;BME280;50094;51.356;-0.196;2022-09-09T01:26:52;99450.04;;;27.48;38.94
63916;BME280;50094;51.356;-0.196;2022-09-09T01:29:22;99451.21;;;27.50;38.93
63916;BME280;50094;51.356;-0.196;2022-09-09T01:31:55;99451.31;;;27.56;38.87
63916;BME280;50094;51.356;-0.196;2022-09-09T01:34:25;99452.67;;;27.33;38.83
63916;BME280;50094;51.356;-0.196;2022-09-09T01:37:02;99452.26;;;27.33;38.82
63916;BME280;50094;51.356;-0.196;2022-09-09T01:39:30;99453.52;;;27.61;38.81
63916;BME280;50094;51.356;-0.196;2022-09-09T01:41:58;99456.56;;;27.34;38.78
63916;BME280;50094;51.356;-0.196;2022-09-09T01:44:27;99454.49;;;27.64;38.77
63916;BME280;50094;51.356;-0.196;2022-09-09T01:46:54;99454.61;;;27.02;38.97
63916;BME280;50094;51.356;-0.196;2022-09-09T01:49:22;99452.14;;;27.35;39.12
63916;BME280;50094;51.356;-0.196;2022-09-09T01:51:52;99454.30;;;27.17;39.26
63916;BME280;50094;51.356;-0.196;2022-09-09T01:54:21;99452.82;;;26.80;39.41
63916;BME280;50094;51.356;-0.196;2022-09-09T01:57:03;99449.39;;;26.80;39.63
63916;BME280;50094;51.356;-0.196;2022-09-09T01:59:48;99449.80;;;26.62;39.88
63916;BME280;50094;51.356;-0.196;2022-09-09T02:02:18;99448.94;;;26.73;39.91
63916;BME280;50094;51.356;-0.196;2022-09-09T02:04:48;99449.12;;;27.17;39.57
63916;BME280;50094;51.356;-0.196;2022-09-09T02:07:29;99446.73;;;27.11;39.62
63916;BME280;50094;51.356;-0.196;2022-09-09T02:10:10;99444.08;;;27.09;39.41
63916;BME280;50094;51.356;-0.196;2022-09-09T02:12:41;99448.52;;;27.08;39.38
63916;BME280;50094;51.356;-0.196;2022-09-09T02:15:14;99451.16;;;27.04;39.48
63916;BME280;50094;51.356;-0.196;2022-09-09T02:17:46;99454.63;;;26.91;39.64
63916;BME280;50094;51.356;-0.196;2022-09-09T02:20:18;99453.81;;;26.85;39.74
63916;BME280;50094;51.356;-0.196;2022-09-09T02:22:50;99454.97;;;26.46;39.94
63916;BME280;50094;51.356;-0.196;2022-09-09T02:25:21;99455.07;;;26.76;39.89
63916;BME280;50094;51.356;-0.196;2022-09-09T02:27:50;99455.18;;;26.66;40.01
63916;BME280;50094;51.356;-0.196;2022-09-09T02:30:19;99456.70;;;26.67;40.04
63916;BME280;50094;51.356;-0.196;2022-09-09T02:32:49;99457.06;;;26.57;40.12
63916;BME280;50094;51.356;-0.196;2022-09-09T02:35:21;99455.37;;;26.57;40.14
63916;BME280;50094;51.356;-0.196;2022-09-09T02:37:53;99456.60;;;26.64;40.11
63916;BME280;50094;51.356;-0.196;2022-09-09T02:40:21;99460.86;;;26.32;40.20
63916;BME280;50094;51.356;-0.196;2022-09-09T02:42:49;99463.32;;;26.68;40.07
63916;BME280;50094;51.356;-0.196;2022-09-09T02:45:19;99464.43;;;26.43;40.13
63916;BME280;50094;51.356;-0.196;2022-09-09T02:47:52;99467.28;;;26.65;40.09
63916;BME280;50094;51.356;-0.196;2022-09-09T02:50:26;99468.23;;;26.25;40.28
63916;BME280;50094;51.356;-0.196;2022-09-09T02:53:05;99469.79;;;26.31;40.46
63916;BME280;50094;51.356;-0.196;2022-09-09T02:55:39;99471.00;;;26.46;40.31
63916;BME280;50094;51.356;-0.196;2022-09-09T02:58:08;99471.60;;;26.42;40.34
63916;BME280;50094;51.356;-0.196;2022-09-09T03:00:38;99472.47;;;26.66;40.15
63916;BME280;50094;51.356;-0.196;2022-09-09T03:03:07;99472.38;;;26.72;40.10
63916;BME280;50094;51.356;-0.196;2022-09-09T03:05:35;99473.87;;;26.69;40.07
63916;BME280;50094;51.356;-0.196;2022-09-09T03:08:03;99476.37;;;26.48;40.06
63916;BME280;50094;51.356;-0.196;2022-09-09T03:10:31;99479.78;;;26.66;40.00
63916;BME280;50094;51.356;-0.196;2022-09-09T03:12:58;99481.06;;;26.51;40.15
63916;BME280;50094;51.356;-0.196;2022-09-09T03:15:26;99480.62;;;26.52;40.14
63916;BME280;50094;51.356;-0.196;2022-09-09T03:17:54;99481.42;;;26.57;40.13
63916;BME280;50094;51.356;-0.196;2022-09-09T03:20:21;99481.85;;;26.31;40.19
63916;BME280;50094;51.356;-0.196;2022-09-09T03:22:49;99480.71;;;26.31;40.17
63916;BME280;50094;51.356;-0.196;2022-09-09T03:25:17;99476.93;;;26.38;40.32
63916;BME280;50094;51.356;-0.196;2022-09-09T03:27:44;99479.03;;;26.51;40.25
63916;BME280;50094;51.356;-0.196;2022-09-09T03:30:12;99475.89;;;26.58;40.19
63916;BME280;50094;51.356;-0.196;2022-09-09T03:32:39;99478.91;;;26.59;40.19
63916;BME280;50094;51.356;-0.196;2022-09-09T03:35:08;99481.99;;;26.42;40.09
63916;BME280;50094;51.356;-0.196;2022-09-09T03:37:36;99483.71;;;26.65;40.12
63916;BME280;50094;51.356;-0.196;2022-09-09T03:40:04;99483.38;;;26.45;39.89
63916;BME280;50094;51.356;-0.196;2022-09-09T03:42:32;99485.04;;;26.57;40.00
63916;BME280;50094;51.356;-0.196;2022-09-09T03:44:59;99489.42;;;26.95;39.87
63916;BME280;50094;51.356;-0.196;2022-09-09T03:47:27;99489.31;;;27.01;39.79
63916;BME280;50094;51.356;-0.196;2022-09-09T03:49:55;99491.92;;;27.03;39.73
63916;BME280;50094;51.356;-0.196;2022-09-09T03:52:22;99489.84;;;26.82;39.71
63916;BME280;50094;51.356;-0.196;2022-09-09T03:54:50;99492.65;;;26.78;39.69
63916;BME280;50094;51.356;-0.196;2022-09-09T03:57:18;99493.62;;;26.84;39.73
63916;BME280;50094;51.356;-0.196;2022-09-09T03:59:45;99496.22;;;26.67;39.86
63916;BME280;50094;51.356;-0.196;2022-09-09T04:02:13;99496.72;;;26.55;39.97
63916;BME280;50094;51.356;-0.196;2022-09-09T04:04:40;99499.58;;;26.61;39.96
63916;BME280;50094;51.356;-0.196;2022-09-09T04:07:08;99501.81;;;26.57;40.02
63916;BME280;50094;51.356;-0.196;2022-09-09T04:09:36;99511.33;;;27.08;40.00
63916;BME280;50094;51.356;-0.196;2022-09-09T04:12:04;99514.46;;;26.67;39.93
63916;BME280;50094;51.356;-0.196;2022-09-09T04:14:31;99517.72;;;26.62;39.96
63916;BME280;50094;51.356;-0.196;2022-09-09T04:16:59;99521.99;;;26.70;39.93
63916;BME280;50094;51.356;-0.196;2022-09-09T04:19:26;99523.90;;;26.82;39.95
63916;BME280;50094;51.356;-0.196;2022-09-09T04:21:54;99527.25;;;27.00;39.82
63916;BME280;50094;51.356;-0.196;2022-09-09T04:24:22;99527.55;;;27.06;39.77
63916;BME280;50094;51.356;-0.196;2022-09-09T04:26:49;99531.21;;;26.94;39.64
63916;BME280;50094;51.356;-0.196;2022-09-09T04:29:17;99528.08;;;27.09;39.49
63916;BME280;50094;51.356;-0.196;2022-09-09T04:31:45;99529.04;;;27.39;39.41
63916;BME280;50094;51.356;-0.196;2022-09-09T04:34:12;99530.18;;;27.09;39.44
63916;BME280;50094;51.356;-0.196;2022-09-09T04:36:40;99530.10;;;27.28;39.37
63916;BME280;50094;51.356;-0.196;2022-09-09T04:39:08;99527.60;;;27.26;39.37
63916;BME280;50094;51.356;-0.196;2022-09-09T04:41:35;99530.30;;;27.02;39.31
63916;BME280;50094;51.356;-0.196;2022-09-09T04:44:03;99529.84;;;27.04;39.25
63916;BME280;50094;51.356;-0.196;2022-09-09T04:46:30;99533.72;;;27.21;39.29
63916;BME280;50094;51.356;-0.196;2022-09-09T04:48:58;99536.47;;;27.30;39.25
63916;BME280;50094;51.356;-0.196;2022-09-09T04:51:26;99539.58;;;27.28;39.24
63916;BME280;50094;51.356;-0.196;2022-09-09T04:53:53;99541.72;;;27.11;39.21
63916;BME280;50094;51.356;-0.196;2022-09-09T04:56:21;99541.41;;;27.25;39.26
63916;BME280;50094;51.356;-0.196;2022-09-09T04:58:49;99541.83;;;27.25;39.25
63916;BME280;50094;51.356;-0.196;2022-09-09T05:01:18;99545.78;;;27.29;39.23
63916;BME280;50094;51.356;-0.196;2022-09-09T05:03:46;99552.18;;;26.95;39.29
63916;BME280;50094;51.356;-0.196;2022-09-09T05:06:15;99551.89;;;27.10;39.19
63916;BME280;50094;51.356;-0.196;2022-09-09T05:08:44;99554.90;;;27.33;39.19
63916;BME280;50094;51.356;-0.196;2022-09-09T05:11:16;99561.53;;;27.21;39.28
63916;BME280;50094;51.356;-0.196;2022-09-09T05:13:44;99565.65;;;26.94;39.29
63916;BME280;50094;51.356;-0.196;2022-09-09T05:16:12;99566.26;;;26.86;39.54
63916;BME280;50094;51.356;-0.196;2022-09-09T05:18:40;99570.18;;;26.76;39.48
63916;BME280;50094;51.356;-0.196;2022-09-09T05:21:08;99572.89;;;26.92;39.50
63916;BME280;50094;51.356;-0.196;2022-09-09T05:23:36;99576.65;;;26.98;39.39
63916;BME280;50094;51.356;-0.196;2022-09-09T05:26:04;99579.08;;;26.77;39.35
63916;BME280;50094;51.356;-0.196;2022-09-09T05:28:34;99578.52;;;27.08;39.35
63916;BME280;50094;51.356;-0.196;2022-09-09T05:31:04;99581.92;;;26.89;39.31
63916;BME280;50094;51.356;-0.196;2022-09-09T05:33:32;99584.98;;;27.11;39.19
63916;BME280;50094;51.356;-0.196;2022-09-09T05:36:00;99585.84;;;27.19;39.21
63916;BME280;50094;51.356;-0.196;2022-09-09T05:38:29;99587.47;;;27.00;39.31
63916;BME280;50094;51.356;-0.196;2022-09-09T05:40:56;99588.32;;;26.63;39.44
63916;BME280;50094;51.356;-0.196;2022-09-09T05:43:25;99588.99;;;27.14;39.34
63916;BME280;50094;51.356;-0.196;2022-09-09T05:46:02;99593.89;;;26.72;39.72
63916;BME280;50094;51.356;-0.196;2022-09-09T05:48:30;99598.96;;;27.17;39.41
63916;BME280;50094;51.356;-0.196;2022-09-09T05:50:59;99602.22;;;27.24;39.32
63916;BME280;50094;51.356;-0.196;2022-09-09T05:53:26;99608.97;;;26.85;39.38
63916;BME280;50094;51.356;-0.196;2022-09-09T05:56:03;99611.23;;;26.99;39.22
63916;BME280;50094;51.356;-0.196;2022-09-09T05:58:31;99611.64;;;26.88;39.45
63916;BME280;50094;51.356;-0.196;2022-09-09T06:01:03;99614.81;;;26.80;39.58
63916;BME280;50094;51.356;-0.196;2022-09-09T06:03:31;99614.46;;;26.71;39.71
63916;BME280;50094;51.356;-0.196;2022-09-09T06:06:00;99618.80;;;26.57;39.87
63916;BME280;50094;51.356;-0.196;2022-09-09T06:08:28;99620.50;;;26.39;39.95
63916;BME280;50094;51.356;-0.196;2022-09-09T06:11:02;99622.86;;;26.85;39.78
63916;BME280;50094;51.356;-0.196;2022-09-09T06:13:29;99624.64;;;26.80;39.82
63916;BME280;50094;51.356;-0.196;2022-09-09T06:15:57;99628.17;;;26.76;39.85
63916;BME280;50094;51.356;-0.196;2022-09-09T06:18:26;99628.15;;;26.64;39.91
63916;BME280;50094;51.356;-0.196;2022-09-09T06:20:54;99631.43;;;26.78;39.83
63916;BME280;50094;51.356;-0.196;2022-09-09T06:23:21;99630.03;;;26.87;39.75
63916;BME280;50094;51.356;-0.196;2022-09-09T06:25:49;99634.63;;;26.97;39.65
63916;BME280;50094;51.356;-0.196;2022-09-09T06:28:17;99634.55;;;26.60;39.76
63916;BME280;50094;51.356;-0.196;2022-09-09T06:30:44;99640.36;;;26.49;40.01
63916;BME280;50094;51.356;-0.196;2022-09-09T06:33:12;99644.77;;;26.59;39.92
63916;BME280;50094;51.356;-0.196;2022-09-09T06:35:40;99647.02;;;26.47;40.04
63916;BME280;50094;51.356;-0.196;2022-09-09T06:38:07;99650.58;;;26.25;40.25
63916;BME280;50094;51.356;-0.196;2022-09-09T06:40:35;99651.47;;;26.12;40.40
63916;BME280;50094;51.356;-0.196;2022-09-09T06:43:02;99652.50;;;26.61;40.03
63916;BME280;50094;51.356;-0.196;2022-09-09T06:45:30;99656.75;;;26.61;40.19
63916;BME280;50094;51.356;-0.196;2022-09-09T06:47:57;99658.32;;;26.67;40.16
63916;BME280;50094;51.356;-0.196;2022-09-09T06:50:24;99660.48;;;26.62;40.26
63916;BME280;50094;51.356;-0.196;2022-09-09T06:52:51;99662.81;;;26.67;40.06
63916;BME280;50094;51.356;-0.196;2022-09-09T06:55:18;99662.81;;;26.94;40.14
63916;BME280;50094;51.356;-0.196;2022-09-09T06:57:46;99663.69;;;26.66;40.47
63916;BME280;50094;51.356;-0.196;2022-09-09T07:00:13;99665.09;;;26.56;40.58
63916;BME280;50094;51.356;-0.196;2022-09-09T07:02:40;99668.09;;;26.59;40.50
63916;BME280;50094;51.356;-0.196;2022-09-09T07:05:09;99669.51;;;26.39;40.66
63916;BME280;50094;51.356;-0.196;2022-09-09T07:07:36;99672.36;;;26.09;40.97
63916;BME280;50094;51.356;-0.196;2022-09-09T07:10:04;99675.80;;;26.35;40.76
63916;BME280;50094;51.356;-0.196;2022-09-09T07:12:32;99678.94;;;26.31;40.70
63916;BME280;50094;51.356;-0.196;2022-09-09T07:14:59;99684.47;;;26.32;40.61
63916;BME280;50094;51.356;-0.196;2022-09-09T07:17:27;99686.31;;;26.37;40.54
63916;BME280;50094;51.356;-0.196;2022-09-09T07:19:54;99691.08;;;26.48;40.38
63916;BME280;50094;51.356;-0.196;2022-09-09T07:22:22;99692.41;;;26.74;40.11
63916;BME280;50094;51.356;-0.196;2022-09-09T07:24:50;99691.64;;;26.62;39.99
63916;BME280;50094;51.356;-0.196;2022-09-09T07:27:17;99693.44;;;26.96;39.83
63916;BME280;50094;51.356;-0.196;2022-09-09T07:29:45;99698.42;;;26.88;39.64
63916;BME280;50094;51.356;-0.196;2022-09-09T07:32:13;99701.66;;;27.13;39.56
63916;BME280;50094;51.356;-0.196;2022-09-09T07:34:40;99703.76;;;27.20;39.44
63916;BME280;50094;51.356;-0.196;2022-09-09T07:37:08;99708.63;;;27.21;39.34
63916;BME280;50094;51.356;-0.196;2022-09-09T07:39:36;99713.22;;;27.21;39.23
63916;BME280;50094;51.356;-0.196;2022-09-09T07:42:04;99720.48;;;27.19;39.18
63916;BME280;50094;51.356;-0.196;2022-09-09T07:44:31;99721.93;;;27.04;39.08
63916;BME280;50094;51.356;-0.196;2022-09-09T07:46:59;99721.24;;;27.26;39.03
63916;BME280;50094;51.356;-0.196;2022-09-09T07:49:27;99720.43;;;27.28;38.94
63916;BME280;50094;51.356;-0.196;2022-09-09T07:51:54;99725.30;;;27.22;38.93
63916;BME280;50094;51.356;-0.196;2022-09-09T07:54:22;99725.73;;;26.79;38.89
63916;BME280;50094;51.356;-0.196;2022-09-09T07:56:50;99726.53;;;27.36;38.83
63916;BME280;50094;51.356;-0.196;2022-09-09T07:59:18;99726.42;;;27.36;38.77
63916;BME280;50094;51.356;-0.196;2022-09-09T08:01:47;99730.12;;;27.36;38.76
63916;BME280;50094;51.356;-0.196;2022-09-09T08:04:17;99736.13;;;27.12;38.75
63916;BME280;50094;51.356;-0.196;2022-09-09T08:06:47;99739.15;;;27.15;38.73
63916;BME280;50094;51.356;-0.196;2022-09-09T08:09:15;99746.59;;;26.83;38.77
63916;BME280;50094;51.356;-0.196;2022-09-09T08:11:43;99748.83;;;27.31;38.74
63916;BME280;50094;51.356;-0.196;2022-09-09T08:14:11;99753.01;;;27.26;38.72
63916;BME280;50094;51.356;-0.196;2022-09-09T08:16:40;99757.84;;;27.00;38.75
63916;BME280;50094;51.356;-0.196;2022-09-09T08:19:08;99760.26;;;27.21;38.76
63916;BME280;50094;51.356;-0.196;2022-09-09T08:21:38;99764.33;;;27.23;38.72
63916;BME280;50094;51.356;-0.196;2022-09-09T08:24:07;99765.10;;;27.11;38.73
63916;BME280;50094;51.356;-0.196;2022-09-09T08:26:36;99770.69;;;27.21;38.65
63916;BME280;50094;51.356;-0.196;2022-09-09T08:29:06;99775.53;;;27.02;38.61
63916;BME280;50094;51.356;-0.196;2022-09-09T08:31:36;99780.78;;;27.20;38.53
63916;BME280;50094;51.356;-0.196;2022-09-09T08:34:05;99787.40;;;26.97;38.46
63916;BME280;50094;51.356;-0.196;2022-09-09T08:36:34;99791.50;;;27.10;38.45
63916;BME280;50094;51.356;-0.196;2022-09-09T08:39:04;99793.43;;;27.03;38.43
63916;BME280;50094;51.356;-0.196;2022-09-09T08:41:59;99794.23;;;26.67;38.52
63916;BME280;50094;51.356;-0.196;2022-09-09T08:44:41;99797.87;;;26.79;38.63
63916;BME280;50094;51.356;-0.196;2022-09-09T08:47:16;99801.81;;;26.66;38.72
63916;BME280;50094;51.356;-0.196;2022-09-09T08:50:01;99806.23;;;26.78;38.64
63916;BME280;50094;51.356;-0.196;2022-09-09T08:52:35;99810.42;;;26.78;38.60
63916;BME280;50094;51.356;-0.196;2022-09-09T08:55:15;99813.23;;;26.55;38.72
63916;BME280;50094;51.356;-0.196;2022-09-09T08:57:49;99816.60;;;26.51;38.77
63916;BME280;50094;51.356;-0.196;2022-09-09T09:00:17;99816.77;;;26.40;38.92
63916;BME280;50094;51.356;-0.196;2022-09-09T09:02:51;99821.17;;;26.35;39.00
63916;BME280;50094;51.356;-0.196;2022-09-09T09:05:27;99828.28;;;26.29;39.09
63916;BME280;50094;51.356;-0.196;2022-09-09T09:08:05;99830.65;;;26.37;39.05
63916;BME280;50094;51.356;-0.196;2022-09-09T09:10:43;99831.35;;;26.45;39.00
63916;BME280;50094;51.356;-0.196;2022-09-09T09:13:14;99832.05;;;26.45;38.98
63916;BME280;50094;51.356;-0.196;2022-09-09T09:15:44;99836.60;;;26.39;39.08
63916;BME280;50094;51.356;-0.196;2022-09-09T09:18:13;99838.13;;;26.30;39.16
63916;BME280;50094;51.356;-0.196;2022-09-09T09:20:50;99839.74;;;26.40;39.10
63916;BME280;50094;51.356;-0.196;2022-09-09T09:23:23;99845.98;;;26.41;39.12
63916;BME280;50094;51.356;-0.196;2022-09-09T09:25:56;99851.74;;;26.76;39.07
63916;BME280;50094;51.356;-0.196;2022-09-09T09:28:25;99856.83;;;26.37;39.14
63916;BME280;50094;51.356;-0.196;2022-09-09T09:30:56;99862.16;;;26.25;39.25
63916;BME280;50094;51.356;-0.196;2022-09-09T09:33:28;99860.63;;;26.42;39.14
63916;BME280;50094;51.356;-0.196;2022-09-09T09:35:57;99863.65;;;26.46;39.11
63916;BME280;50094;51.356;-0.196;2022-09-09T09:38:26;99866.66;;;26.46;39.09
63916;BME280;50094;51.356;-0.196;2022-09-09T09:40:55;99870.89;;;26.41;39.11
63916;BME280;50094;51.356;-0.196;2022-09-09T09:43:26;99872.54;;;26.68;39.11
63916;BME280;50094;51.356;-0.196;2022-09-09T09:45:54;99872.50;;;26.37;39.16
63916;BME280;50094;51.356;-0.196;2022-09-09T09:48:21;99875.50;;;26.33;39.21
63916;BME280;50094;51.356;-0.196;2022-09-09T09:50:51;99878.17;;;26.40;39.18
63916;BME280;50094;51.356;-0.196;2022-09-09T09:53:22;99881.19;;;26.42;39.17
63916;BME280;50094;51.356;-0.196;2022-09-09T09:55:55;99881.91;;;26.39;39.20
63916;BME280;50094;51.356;-0.196;2022-09-09T09:58:24;99885.06;;;26.49;39.11
63916;BME280;50094;51.356;-0.196;2022-09-09T10:00:52;99884.84;;;26.53;39.10
63916;BME280;50094;51.356;-0.196;2022-09-09T10:03:25;99884.80;;;26.61;39.00
63916;BME280;50094;51.356;-0.196;2022-09-09T10:05:53;99885.48;;;26.73;38.87
63916;BME280;50094;51.356;-0.196;2022-09-09T10:08:21;99885.15;;;26.63;38.92
63916;BME280;50094;51.356;-0.196;2022-09-09T10:10:57;99887.70;;;26.57;38.96
63916;BME280;50094;51.356;-0.196;2022-09-09T10:13:31;99885.97;;;26.53;38.98
63916;BME280;50094;51.356;-0.196;2022-09-09T10:16:11;99893.93;;;26.40;39.07
63916;BME280;50094;51.356;-0.196;2022-09-09T10:18:49;99897.00;;;26.21;39.26
63916;BME280;50094;51.356;-0.196;2022-09-09T10:21:35;99901.26;;;26.39;39.17
63916;BME280;50094;51.356;-0.196;2022-09-09T10:24:20;99902.95;;;26.33;39.20
63916;BME280;50094;51.356;-0.196;2022-09-09T10:26:55;99903.50;;;26.33;39.20
63916;BME280;50094;51.356;-0.196;2022-09-09T10:29:34;99904.33;;;26.21;39.33
63916;BME280;50094;51.356;-0.196;2022-09-09T10:32:33;99904.62;;;26.29;39.32
63916;BME280;50094;51.356;-0.196;2022-09-09T10:35:09;99910.10;;;26.49;39.19
63916;BME280;50094;51.356;-0.196;2022-09-09T10:37:46;99908.77;;;26.77;39.13
63916;BME280;50094;51.356;-0.196;2022-09-09T10:40:26;99913.50;;;26.64;39.05
63916;BME280;50094;51.356;-0.196;2022-09-09T10:42:58;99916.53;;;26.76;38.91
63916;BME280;50094;51.356;-0.196;2022-09-09T10:45:32;99916.74;;;26.69;38.93
63916;BME280;50094;51.356;-0.196;2022-09-09T10:48:17;99916.73;;;26.85;38.78
63916;BME280;50094;51.356;-0.196;2022-09-09T10:50:54;99916.69;;;26.90;38.71
63916;BME280;50094;51.356;-0.196;2022-09-09T10:53:35;99914.57;;;26.83;38.60
63916;BME280;50094;51.356;-0.196;2022-09-09T10:56:07;99914.82;;;26.87;38.52
63916;BME280;50094;51.356;-0.196;2022-09-09T10:58:40;99912.71;;;26.85;38.45
63916;BME280;50094;51.356;-0.196;2022-09-09T11:01:14;99913.66;;;26.88;38.38
63916;BME280;50094;51.356;-0.196;2022-09-09T11:03:43;99912.45;;;27.11;38.36
63916;BME280;50094;51.356;-0.196;2022-09-09T11:06:17;99913.74;;;26.56;38.36
63916;BME280;50094;51.356;-0.196;2022-09-09T11:08:47;99916.67;;;27.11;38.31
63916;BME280;50094;51.356;-0.196;2022-09-09T11:11:19;99921.47;;;26.75;38.41
63916;BME280;50094;51.356;-0.196;2022-09-09T11:13:53;99923.87;;;27.01;38.40
63916;BME280;50094;51.356;-0.196;2022-09-09T11:16:28;99930.03;;;26.92;38.48
63916;BME280;50094;51.356;-0.196;2022-09-09T11:19:02;99934.10;;;26.90;38.54
63916;BME280;50094;51.356;-0.196;2022-09-09T11:21:35;99938.69;;;26.87;38.59
63916;BME280;50094;51.356;-0.196;2022-09-09T11:24:09;99940.57;;;26.73;38.74
63916;BME280;50094;51.356;-0.196;2022-09-09T11:26:40;99942.60;;;26.87;38.69
63916;BME280;50094;51.356;-0.196;2022-09-09T11:29:23;99940.54;;;26.84;38.74
63916;BME280;50094;51.356;-0.196;2022-09-09T11:32:12;99938.47;;;26.67;38.74
63916;BME280;50094;51.356;-0.196;2022-09-09T11:34:53;99939.75;;;26.94;38.73
63916;BME280;50094;51.356;-0.196;2022-09-09T11:37:42;99942.33;;;26.98;38.69
63916;BME280;50094;51.356;-0.196;2022-09-09T11:40:19;99947.66;;;27.09;38.58
63916;BME280;50094;51.356;-0.196;2022-09-09T11:42:49;99945.33;;;26.90;38.53
63916;BME280;50094;51.356;-0.196;2022-09-09T11:45:28;99944.74;;;27.16;38.46
63916;BME280;50094;51.356;-0.196;2022-09-09T11:47:57;99946.15;;;26.86;38.46
63916;BME280;50094;51.356;-0.196;2022-09-09T11:50:31;99949.67;;;27.10;38.42
63916;BME280;50094;51.356;-0.196;2022-09-09T11:53:19;99951.52;;;27.07;38.42
63916;BME280;50094;51.356;-0.196;2022-09-09T11:55:46;99954.10;;;27.12;38.36
63916;BME280;50094;51.356;-0.196;2022-09-09T11:58:17;99956.10;;;27.11;38.39
63916;BME280;50094;51.356;-0.196;2022-09-09T12:00:46;99957.35;;;27.13;38.36
63916;BME280;50094;51.356;-0.196;2022-09-09T12:03:39;99959.25;;;27.10;38.33
63916;BME280;50094;51.356;-0.196;2022-09-09T12:06:12;99958.03;;;27.12;38.23
63916;BME280;50094;51.356;-0.196;2022-09-09T12:08:43;99957.77;;;27.14;38.17
63916;BME280;50094;51.356;-0.196;2022-09-09T12:11:12;99955.54;;;27.20;38.07
63916;BME280;50094;51.356;-0.196;2022-09-09T12:13:53;99954.54;;;27.15;38.04
63916;BME280;50094;51.356;-0.196;2022-09-09T12:16:32;99955.18;;;26.62;38.05
63916;BME280;50094;51.356;-0.196;2022-09-09T12:19:06;99958.51;;;27.11;38.09
63916;BME280;50094;51.356;-0.196;2022-09-09T12:21:38;99954.66;;;27.11;38.09
63916;BME280;50094;51.356;-0.196;2022-09-09T12:24:10;99958.69;;;27.02;38.13
63916;BME280;50094;51.356;-0.196;2022-09-09T12:26:41;99959.04;;;26.87;38.07
63916;BME280;50094;51.356;-0.196;2022-09-09T12:29:21;99956.99;;;27.19;38.04
63916;BME280;50094;51.356;-0.196;2022-09-09T12:31:58;99956.22;;;27.20;38.06
63916;BME280;50094;51.356;-0.196;2022-09-09T12:34:34;99954.95;;;27.27;38.03
63916;BME280;50094;51.356;-0.196;2022-09-09T12:37:08;99957.80;;;27.05;37.99
63916;BME280;50094;51.356;-0.196;2022-09-09T12:39:45;99960.02;;;27.05;37.95
63916;BME280;50094;51.356;-0.196;2022-09-09T12:42:17;99961.64;;;27.24;37.93
63916;BME280;50094;51.356;-0.196;2022-09-09T12:44:52;99962.59;;;27.21;37.90
63916;BME280;50094;51.356;-0.196;2022-09-09T12:47:22;99964.52;;;26.97;37.90
63916;BME280;50094;51.356;-0.196;2022-09-09T12:49:51;99963.17;;;27.21;37.88
63916;BME280;50094;51.356;-0.196;2022-09-09T12:52:25;99960.09;;;27.17;37.92
63916;BME280;50094;51.356;-0.196;2022-09-09T12:54:54;99958.16;;;27.17;37.91
63916;BME280;50094;51.356;-0.196;2022-09-09T12:57:23;99959.08;;;26.99;37.90
63916;BME280;50094;51.356;-0.196;2022-09-09T12:59:52;99963.19;;;27.05;37.87
63916;BME280;50094;51.356;-0.196;2022-09-09T13:02:21;99959.65;;;27.28;37.83
63916;BME280;50094;51.356;-0.196;2022-09-09T13:04:49;99957.52;;;26.78;37.78
63916;BME280;50094;51.356;-0.196;2022-09-09T13:07:17;99957.54;;;27.10;37.72
63916;BME280;50094;51.356;-0.196;2022-09-09T13:09:45;99957.98;;;27.08;37.68
63916;BME280;50094;51.356;-0.196;2022-09-09T13:12:15;99956.78;;;27.06;37.65